createdAt,value
2022-08-19T00:02:16.844Z,21.73
2022-08-19T00:04:44.326Z,22.09
2022-08-19T00:07:12.198Z,21.98
2022-08-19T00:09:39.415Z,22.03
2022-08-19T00:12:06.922Z,21.95
2022-08-19T00:14:34.448Z,21.99
2022-08-19T00:17:02.120Z,21.91
2022-08-19T00:19:29.992Z,21.93
2022-08-19T00:21:57.773Z,21.78
2022-08-19T00:24:26.222Z,21.75
2022-08-19T00:26:53.905Z,21.68
2022-08-19T00:29:22.914Z,21.78
2022-08-19T00:31:51.314Z,21.79
2022-08-19T00:34:18.727Z,20.83
2022-08-19T00:36:47.126Z,21.75
2022-08-19T00:39:16.502Z,21.57
2022-08-19T00:41:47.666Z,21.73
2022-08-19T00:44:27.088Z,21.04
2022-08-19T00:46:58.420Z,21.71
2022-08-19T00:49:26.438Z,21.71
2022-08-19T00:52:00.380Z,21.70
2022-08-19T00:54:31.257Z,21.70
2022-08-19T00:57:00.548Z,21.60
2022-08-19T01:00:00.476Z,21.28
2022-08-19T01:02:18.592Z,21.57
2022-08-19T01:04:45.962Z,21.52
2022-08-19T01:07:15.223Z,21.00
2022-08-19T01:09:47.991Z,21.40
2022-08-19T01:12:15.929Z,21.48
2022-08-19T01:14:43.716Z,21.04
2022-08-19T01:17:12.542Z,21.40
2022-08-19T01:19:43.670Z,20.65
2022-08-19T01:22:30.081Z,21.15
2022-08-19T01:24:59.328Z,21.11
2022-08-19T01:27:29.530Z,21.18
2022-08-19T01:30:02.797Z,20.92
2022-08-19T01:32:33.601Z,21.04
2022-08-19T01:35:03.335Z,20.94
2022-08-19T01:37:31.794Z,21.00
2022-08-19T01:39:59.802Z,20.98
2022-08-19T01:42:30.181Z,20.48
2022-08-19T01:44:58.603Z,20.97
2022-08-19T01:47:26.300Z,20.98
2022-08-19T01:49:53.619Z,20.96
2022-08-19T01:52:21.092Z,20.90
2022-08-19T01:54:48.637Z,20.39
2022-08-19T01:57:16.833Z,20.85
2022-08-19T01:59:46.055Z,20.83
2022-08-19T02:02:13.600Z,20.86
2022-08-19T02:04:41.063Z,20.84
2022-08-19T02:07:09.358Z,20.84
2022-08-19T02:09:37.496Z,19.76
2022-08-19T02:12:06.415Z,19.92
2022-08-19T02:14:35.974Z,20.82
2022-08-19T02:17:04.826Z,20.85
2022-08-19T02:19:33.737Z,20.67
2022-08-19T02:22:04.814Z,20.20
2022-08-19T02:24:32.341Z,20.58
2022-08-19T02:26:59.905Z,20.48
2022-08-19T02:29:27.547Z,20.57
2022-08-19T02:31:55.390Z,20.04
2022-08-19T02:34:23.017Z,20.57
2022-08-19T02:36:51.984Z,19.63
2022-08-19T02:39:20.350Z,20.18
2022-08-19T02:41:47.860Z,20.63
2022-08-19T02:44:22.985Z,20.65
2022-08-19T02:46:58.679Z,20.60
2022-08-19T02:49:26.123Z,20.29
2022-08-19T02:51:53.687Z,20.70
2022-08-19T02:54:21.820Z,20.68
2022-08-19T02:56:50.119Z,20.57
2022-08-19T02:59:17.401Z,20.56
2022-08-19T03:01:48.057Z,19.91
2022-08-19T03:04:16.794Z,20.72
2022-08-19T03:06:47.245Z,20.75
2022-08-19T03:09:15.903Z,20.78
2022-08-19T03:11:43.882Z,20.04
2022-08-19T03:14:11.713Z,20.74
2022-08-19T03:16:46.086Z,20.81
2022-08-19T03:19:14.184Z,20.86
2022-08-19T03:21:45.683Z,20.98
2022-08-19T03:24:15.097Z,21.15
2022-08-19T03:26:46.505Z,21.35
2022-08-19T03:29:14.125Z,21.47
2022-08-19T03:31:52.008Z,21.09
2022-08-19T03:34:29.102Z,21.66
2022-08-19T03:37:00.637Z,21.63
2022-08-19T03:39:28.602Z,20.79
2022-08-19T03:42:31.973Z,21.40
2022-08-19T03:44:51.753Z,20.93
2022-08-19T03:47:19.512Z,21.36
2022-08-19T03:49:47.413Z,20.83
2022-08-19T03:52:15.363Z,21.56
2022-08-19T03:54:43.313Z,20.57
2022-08-19T03:57:11.541Z,21.61
2022-08-19T03:59:39.827Z,21.63
2022-08-19T04:02:12.956Z,21.37
2022-08-19T04:04:44.333Z,21.83
2022-08-19T04:07:17.073Z,21.85
2022-08-19T04:09:44.699Z,21.74
2022-08-19T04:12:11.953Z,22.00
2022-08-19T04:14:40.958Z,21.50
2022-08-19T04:17:08.764Z,22.60
2022-08-19T04:19:38.245Z,23.10
2022-08-19T04:22:06.729Z,23.37
2022-08-19T04:24:37.101Z,23.03
2022-08-19T04:27:05.259Z,23.15
2022-08-19T04:29:33.606Z,23.37
2022-08-19T04:32:08.488Z,23.67
2022-08-19T04:35:02.176Z,23.95
2022-08-19T04:37:34.837Z,23.72
2022-08-19T04:40:21.727Z,24.67
2022-08-19T04:42:49.458Z,25.16
2022-08-19T04:45:17.549Z,26.78
2022-08-19T04:47:47.132Z,27.86
2022-08-19T04:50:19.371Z,28.85
2022-08-19T04:52:47.246Z,29.69
2022-08-19T04:55:17.792Z,30.57
2022-08-19T04:57:45.458Z,30.14
2022-08-19T05:00:13.493Z,29.32
2022-08-19T05:02:41.014Z,28.61
2022-08-19T05:05:09.232Z,28.36
2022-08-19T05:07:37.126Z,27.36
2022-08-19T05:10:06.447Z,27.97
2022-08-19T05:12:34.663Z,27.73
2022-08-19T05:15:05.384Z,28.30
2022-08-19T05:17:38.067Z,28.19
2022-08-19T05:20:27.503Z,28.53
2022-08-19T05:22:55.084Z,28.38
2022-08-19T05:25:23.572Z,28.12
2022-08-19T05:27:51.336Z,27.69
2022-08-19T05:30:20.373Z,26.92
2022-08-19T05:33:01.651Z,26.94
2022-08-19T05:35:29.339Z,26.20
2022-08-19T05:38:02.558Z,25.73
2022-08-19T05:40:30.153Z,26.00
2022-08-19T05:42:57.556Z,26.18
2022-08-19T05:45:25.822Z,26.21
2022-08-19T05:47:53.236Z,26.35
2022-08-19T05:50:20.926Z,26.41
2022-08-19T05:52:54.454Z,26.39
2022-08-19T05:55:23.813Z,26.19
2022-08-19T05:57:51.079Z,26.45
2022-08-19T06:00:22.658Z,26.59
2022-08-19T06:02:52.884Z,26.94
2022-08-19T06:05:21.246Z,27.36
2022-08-19T06:07:48.709Z,27.39
2022-08-19T06:10:16.333Z,27.95
2022-08-19T06:12:46.119Z,28.09
2022-08-19T06:15:15.332Z,27.70
2022-08-19T06:17:45.660Z,28.25
2022-08-19T06:20:16.071Z,27.80
2022-08-19T06:22:45.629Z,26.75
2022-08-19T06:25:15.477Z,28.02
2022-08-19T06:28:11.326Z,28.54
2022-08-19T06:30:33.762Z,28.13
2022-08-19T06:33:01.259Z,27.47
2022-08-19T06:35:30.631Z,26.82
2022-08-19T06:37:58.220Z,26.13
2022-08-19T06:40:26.708Z,25.94
2022-08-19T06:42:55.519Z,26.01
2022-08-19T06:45:35.456Z,25.45
2022-08-19T06:48:04.072Z,25.68
2022-08-19T06:50:31.559Z,25.65
2022-08-19T06:53:01.506Z,25.54
2022-08-19T06:55:33.533Z,25.34
2022-08-19T06:58:23.089Z,25.41
2022-08-19T07:00:52.037Z,25.26
2022-08-19T07:03:19.441Z,25.23
2022-08-19T07:05:47.270Z,25.33
2022-08-19T07:08:15.464Z,25.77
2022-08-19T07:10:47.337Z,25.36
2022-08-19T07:13:15.089Z,25.41
2022-08-19T07:15:42.862Z,26.21
2022-08-19T07:18:11.664Z,26.88
2022-08-19T07:20:42.064Z,27.84
2022-08-19T07:23:15.793Z,29.16
2022-08-19T07:25:52.726Z,30.53
2022-08-19T07:28:24.736Z,31.27
2022-08-19T07:30:53.266Z,30.95
2022-08-19T07:33:20.922Z,30.45
2022-08-19T07:35:48.842Z,30.40
2022-08-19T07:38:17.041Z,30.49
2022-08-19T07:40:47.341Z,30.47
2022-08-19T07:43:17.071Z,30.82
2022-08-19T07:45:45.992Z,29.63
2022-08-19T07:48:13.677Z,30.34
2022-08-19T07:50:42.101Z,30.54
2022-08-19T07:53:09.400Z,31.41
2022-08-19T07:55:42.751Z,31.97
2022-08-19T07:58:16.292Z,31.89
2022-08-19T08:00:45.702Z,31.97
2022-08-19T08:03:14.741Z,31.77
2022-08-19T08:06:00.907Z,31.99
2022-08-19T08:08:48.420Z,32.07
2022-08-19T08:11:19.984Z,32.38
2022-08-19T08:14:00.496Z,32.52
2022-08-19T08:16:39.563Z,32.93
2022-08-19T08:19:20.416Z,32.28
2022-08-19T08:21:57.678Z,31.78
2022-08-19T08:24:28.717Z,31.06
2022-08-19T08:26:57.782Z,29.65
2022-08-19T08:29:34.920Z,29.29
2022-08-19T08:32:13.942Z,28.29
2022-08-19T08:34:43.569Z,28.67
2022-08-19T08:37:11.153Z,28.46
2022-08-19T08:39:39.267Z,27.51
2022-08-19T08:42:18.706Z,27.58
2022-08-19T08:45:06.197Z,27.67
2022-08-19T08:47:42.064Z,27.36
2022-08-19T08:50:17.494Z,27.80
2022-08-19T08:52:49.235Z,27.83
2022-08-19T08:55:20.646Z,27.72
2022-08-19T08:58:15.461Z,27.74
2022-08-19T09:00:46.696Z,27.66
2022-08-19T09:03:23.225Z,27.40
2022-08-19T09:06:02.739Z,27.34
2022-08-19T09:08:44.040Z,27.63
2022-08-19T09:11:42.797Z,27.70
2022-08-19T09:14:49.249Z,27.78
2022-08-19T09:17:15.142Z,27.56
2022-08-19T09:19:53.766Z,27.60
2022-08-19T09:22:25.490Z,27.73
2022-08-19T09:24:54.325Z,27.59
2022-08-19T09:27:43.204Z,27.45
2022-08-19T09:30:16.184Z,27.49
2022-08-19T09:32:44.421Z,26.17
2022-08-19T09:35:13.704Z,27.29
2022-08-19T09:37:43.858Z,27.60
2022-08-19T09:40:13.554Z,27.89
2022-08-19T09:42:50.080Z,27.09
2022-08-19T09:45:23.070Z,27.71
2022-08-19T09:47:53.912Z,26.78
2022-08-19T09:50:23.306Z,27.33
2022-08-19T09:52:57.011Z,27.42
2022-08-19T09:55:31.030Z,27.34
2022-08-19T09:58:03.851Z,27.53
2022-08-19T10:00:32.136Z,27.36
2022-08-19T10:02:59.662Z,27.19
2022-08-19T10:05:48.418Z,27.61
2022-08-19T10:08:20.645Z,27.07
2022-08-19T10:10:49.464Z,26.00
2022-08-19T10:13:23.009Z,26.66
2022-08-19T10:15:54.387Z,27.06
2022-08-19T10:18:25.574Z,27.03
2022-08-19T10:21:04.409Z,27.07
2022-08-19T10:23:33.702Z,26.52
2022-08-19T10:26:02.233Z,26.53
2022-08-19T10:28:29.766Z,26.09
2022-08-19T10:30:57.887Z,26.83
2022-08-19T10:33:38.799Z,27.19
2022-08-19T10:36:23.929Z,27.38
2022-08-19T10:38:56.848Z,26.86
2022-08-19T10:41:28.765Z,27.28
2022-08-19T10:44:04.198Z,27.06
2022-08-19T10:46:34.061Z,27.57
2022-08-19T10:49:02.851Z,27.30
2022-08-19T10:51:49.673Z,27.80
2022-08-19T10:54:17.837Z,27.74
2022-08-19T10:56:59.189Z,27.44
2022-08-19T10:59:35.815Z,27.25
2022-08-19T11:02:06.362Z,27.17
2022-08-19T11:04:34.389Z,27.21
2022-08-19T11:07:05.713Z,27.22
2022-08-19T11:09:40.154Z,27.13
2022-08-19T11:12:08.692Z,27.02
2022-08-19T11:14:36.546Z,26.48
2022-08-19T11:17:06.063Z,27.00
2022-08-19T11:19:34.336Z,26.81
2022-08-19T11:22:04.935Z,26.59
2022-08-19T11:24:34.144Z,27.22
2022-08-19T11:27:12.682Z,26.70
2022-08-19T11:29:40.621Z,26.66
2022-08-19T11:32:11.151Z,27.06
2022-08-19T11:34:38.976Z,26.42
2022-08-19T11:37:07.458Z,27.05
2022-08-19T11:39:37.941Z,27.07
2022-08-19T11:42:27.572Z,26.58
2022-08-19T11:44:55.239Z,27.14
2022-08-19T11:47:23.151Z,26.80
2022-08-19T11:49:51.050Z,26.28
2022-08-19T11:52:18.753Z,26.58
2022-08-19T11:54:46.395Z,26.63
2022-08-19T11:57:18.008Z,26.56
2022-08-19T11:59:53.785Z,26.43
2022-08-19T12:02:23.007Z,25.72
2022-08-19T12:04:50.606Z,26.27
2022-08-19T12:07:18.362Z,25.74
2022-08-19T12:09:48.895Z,26.16
2022-08-19T12:12:16.750Z,25.30
2022-08-19T12:14:44.285Z,26.10
2022-08-19T12:17:13.126Z,25.32
2022-08-19T12:19:41.567Z,25.71
2022-08-19T12:22:09.339Z,25.54
2022-08-19T12:24:37.337Z,25.47
2022-08-19T12:27:05.449Z,25.89
2022-08-19T12:29:41.251Z,25.88
2022-08-19T12:32:10.451Z,25.84
2022-08-19T12:34:40.474Z,26.12
2022-08-19T12:37:09.315Z,25.81
2022-08-19T12:39:40.021Z,26.23
2022-08-19T12:42:10.337Z,26.20
2022-08-19T12:44:41.650Z,25.99
2022-08-19T12:47:12.724Z,26.34
2022-08-19T12:49:55.287Z,26.22
2022-08-19T12:52:28.450Z,26.09
2022-08-19T12:54:57.951Z,26.38
2022-08-19T12:57:32.496Z,26.35
2022-08-19T13:00:22.226Z,26.20
2022-08-19T13:02:53.105Z,26.10
2022-08-19T13:05:23.870Z,25.52
2022-08-19T13:07:53.298Z,26.03
2022-08-19T13:10:22.974Z,25.36
2022-08-19T13:12:52.024Z,25.71
2022-08-19T13:15:23.689Z,26.07
2022-08-19T13:17:57.402Z,26.15
2022-08-19T13:20:25.625Z,26.14
2022-08-19T13:22:54.318Z,26.04
2022-08-19T13:25:22.109Z,25.61
2022-08-19T13:27:50.614Z,26.20
2022-08-19T13:30:38.882Z,26.29
2022-08-19T13:33:12.503Z,25.71
2022-08-19T13:36:01.827Z,26.27
2022-08-19T13:38:29.678Z,26.14
2022-08-19T13:40:56.990Z,26.26
2022-08-19T13:43:27.661Z,25.40
2022-08-19T13:45:58.904Z,25.50
2022-08-19T13:48:28.109Z,26.12
2022-08-19T13:50:56.156Z,26.20
2022-08-19T13:53:23.745Z,25.73
2022-08-19T13:55:52.254Z,25.96
2022-08-19T13:58:21.052Z,25.71
2022-08-19T14:00:48.641Z,25.84
2022-08-19T14:03:16.187Z,25.16
2022-08-19T14:05:44.185Z,25.82
2022-08-19T14:08:11.535Z,25.75
2022-08-19T14:10:39.288Z,25.87
2022-08-19T14:13:07.006Z,25.92
2022-08-19T14:15:34.474Z,25.83
2022-08-19T14:18:02.126Z,25.47
2022-08-19T14:20:30.254Z,25.01
2022-08-19T14:22:57.605Z,25.63
2022-08-19T14:25:28.101Z,25.64
2022-08-19T14:27:56.990Z,25.54
2022-08-19T14:30:30.081Z,25.42
2022-08-19T14:33:01.126Z,25.44
2022-08-19T14:35:30.704Z,25.22
2022-08-19T14:37:59.028Z,25.36
2022-08-19T14:40:30.752Z,25.22
2022-08-19T14:43:05.272Z,25.26
2022-08-19T14:45:37.193Z,25.14
2022-08-19T14:48:12.545Z,24.98
2022-08-19T14:50:47.164Z,24.93
2022-08-19T14:53:14.682Z,23.82
2022-08-19T14:55:44.334Z,25.01
2022-08-19T14:58:28.933Z,24.27
2022-08-19T15:01:00.621Z,24.40
2022-08-19T15:03:30.709Z,24.87
2022-08-19T15:05:59.041Z,24.77
2022-08-19T15:08:27.691Z,24.70
2022-08-19T15:10:56.089Z,24.76
2022-08-19T15:13:25.693Z,24.85
2022-08-19T15:15:53.122Z,24.86
2022-08-19T15:18:21.672Z,24.87
2022-08-19T15:20:50.166Z,24.76
2022-08-19T15:23:19.647Z,24.84
2022-08-19T15:25:47.487Z,24.81
2022-08-19T15:28:17.485Z,24.16
2022-08-19T15:30:44.877Z,24.76
2022-08-19T15:33:16.840Z,24.28
2022-08-19T15:35:44.672Z,24.75
2022-08-19T15:38:18.517Z,24.60
2022-08-19T15:40:49.945Z,24.73
2022-08-19T15:43:19.427Z,23.74
2022-08-19T15:45:49.373Z,24.63
2022-08-19T15:48:17.338Z,24.60
2022-08-19T15:50:45.232Z,24.68
2022-08-19T15:53:13.050Z,24.66
2022-08-19T15:55:46.624Z,24.61
2022-08-19T15:58:33.772Z,24.65
2022-08-19T16:01:24.033Z,24.50
2022-08-19T16:04:14.831Z,24.58
2022-08-19T16:06:52.644Z,24.46
2022-08-19T16:09:27.250Z,24.42
2022-08-19T16:12:01.488Z,23.73
2022-08-19T16:14:31.279Z,24.25
2022-08-19T16:17:01.624Z,24.22
2022-08-19T16:19:28.982Z,24.08
2022-08-19T16:21:57.457Z,24.04
2022-08-19T16:24:28.020Z,23.98
2022-08-19T16:26:56.724Z,23.40
2022-08-19T16:29:34.899Z,23.82
2022-08-19T16:32:10.760Z,23.87
2022-08-19T16:34:42.230Z,23.88
2022-08-19T16:37:10.390Z,23.14
2022-08-19T16:39:39.881Z,22.74
2022-08-19T16:42:11.770Z,23.67
2022-08-19T16:44:45.571Z,23.44
2022-08-19T16:47:14.102Z,23.55
2022-08-19T16:49:52.933Z,23.37
2022-08-19T16:52:27.308Z,23.34
2022-08-19T16:54:55.114Z,22.75
2022-08-19T16:57:24.003Z,23.15
2022-08-19T16:59:52.907Z,22.70
2022-08-19T17:02:23.567Z,22.88
2022-08-19T17:04:59.051Z,23.00
2022-08-19T17:07:28.444Z,23.10
2022-08-19T17:09:57.301Z,22.94
2022-08-19T17:12:30.277Z,22.65
2022-08-19T17:15:00.866Z,22.95
2022-08-19T17:17:30.319Z,23.16
2022-08-19T17:20:00.662Z,23.09
2022-08-19T17:22:28.170Z,23.03
2022-08-19T17:24:56.484Z,22.56
2022-08-19T17:27:31.985Z,22.53
2022-08-19T17:30:03.009Z,23.00
2022-08-19T17:32:35.699Z,23.02
2022-08-19T17:35:04.472Z,22.89
2022-08-19T17:37:32.431Z,21.99
2022-08-19T17:39:59.957Z,22.89
2022-08-19T17:42:28.292Z,22.38
2022-08-19T17:44:59.487Z,22.88
2022-08-19T17:47:28.498Z,22.79
2022-08-19T17:49:57.198Z,22.24
2022-08-19T17:52:25.806Z,21.75
2022-08-19T17:54:53.356Z,22.59
2022-08-19T17:57:20.944Z,22.72
2022-08-19T17:59:48.719Z,22.39
2022-08-19T18:02:19.058Z,22.69
2022-08-19T18:04:50.362Z,22.59
2022-08-19T18:07:21.750Z,22.58
2022-08-19T18:09:52.171Z,21.66
2022-08-19T18:12:29.334Z,21.93
2022-08-19T18:14:58.592Z,21.95
2022-08-19T18:17:26.519Z,21.97
2022-08-19T18:19:53.849Z,22.47
2022-08-19T18:22:43.930Z,21.88
2022-08-19T18:25:29.507Z,21.75
2022-08-19T18:28:00.823Z,22.23
2022-08-19T18:30:34.620Z,22.15
2022-08-19T18:33:09.076Z,21.64
2022-08-19T18:35:39.033Z,21.92
2022-08-19T18:38:26.940Z,21.12
2022-08-19T18:41:12.602Z,22.05
2022-08-19T18:43:59.000Z,21.83
2022-08-19T18:46:44.848Z,22.01
2022-08-19T18:49:18.043Z,21.95
2022-08-19T18:51:45.572Z,21.94
2022-08-19T18:54:13.020Z,21.87
2022-08-19T18:56:45.258Z,21.46
2022-08-19T18:59:15.717Z,21.87
2022-08-19T19:01:50.944Z,21.85
2022-08-19T19:04:21.596Z,21.34
2022-08-19T19:06:49.569Z,20.81
2022-08-19T19:09:20.046Z,21.73
2022-08-19T19:11:51.229Z,21.72
2022-08-19T19:14:47.706Z,21.70
2022-08-19T19:17:15.410Z,21.26
2022-08-19T19:19:44.523Z,21.62
2022-08-19T19:22:15.141Z,21.61
2022-08-19T19:24:45.854Z,21.14
2022-08-19T19:27:18.630Z,20.68
2022-08-19T19:29:52.061Z,21.56
2022-08-19T19:32:21.224Z,21.50
2022-08-19T19:34:49.009Z,20.93
2022-08-19T19:37:17.546Z,20.65
2022-08-19T19:39:47.273Z,21.42
2022-08-19T19:42:19.894Z,21.41
2022-08-19T19:44:50.776Z,20.68
2022-08-19T19:47:20.233Z,21.30
2022-08-19T19:52:40.056Z,20.77
2022-08-19T19:55:09.675Z,21.21
2022-08-19T19:57:39.398Z,21.14
2022-08-19T20:00:09.122Z,21.23
2022-08-19T20:02:36.656Z,21.20
2022-08-19T20:05:04.630Z,21.19
2022-08-19T20:07:51.134Z,21.10
2022-08-19T20:10:18.679Z,20.86
2022-08-19T20:12:46.120Z,20.96
2022-08-19T20:15:15.175Z,20.95
2022-08-19T20:17:46.201Z,20.91
2022-08-19T20:20:19.812Z,20.85
2022-08-19T20:22:47.690Z,20.83
2022-08-19T20:25:17.599Z,20.14
2022-08-19T20:27:50.834Z,20.82
2022-08-19T20:30:21.425Z,20.77
2022-08-19T20:32:50.767Z,20.31
2022-08-19T20:35:20.812Z,20.62
2022-08-19T20:37:48.780Z,20.61
2022-08-19T20:40:21.659Z,20.49
2022-08-19T20:42:51.014Z,20.50
2022-08-19T20:45:33.256Z,20.58
2022-08-19T20:48:03.450Z,20.47
2022-08-19T20:50:33.124Z,20.37
2022-08-19T20:53:02.312Z,20.50
2022-08-19T20:55:30.944Z,20.40
2022-08-19T20:57:58.865Z,20.50
2022-08-19T21:00:26.484Z,20.51
2022-08-19T21:02:54.367Z,20.48
2022-08-19T21:05:21.960Z,20.25
2022-08-19T21:07:49.737Z,20.46
2022-08-19T21:10:18.218Z,20.10
2022-08-19T21:12:45.545Z,20.43
2022-08-19T21:15:13.324Z,19.86
2022-08-19T21:17:41.157Z,20.38
2022-08-19T21:20:10.154Z,20.40
2022-08-19T21:22:37.663Z,19.96
2022-08-19T21:25:06.423Z,19.82
2022-08-19T21:27:33.945Z,19.84
2022-08-19T21:30:01.500Z,20.40
2022-08-19T21:32:32.156Z,19.93
2022-08-19T21:34:59.640Z,20.31
2022-08-19T21:37:27.025Z,19.86
2022-08-19T21:39:55.338Z,19.94
2022-08-19T21:42:23.886Z,20.54
2022-08-19T21:44:51.901Z,19.61
2022-08-19T21:47:19.890Z,19.63
2022-08-19T21:49:47.195Z,19.89
2022-08-19T21:52:20.713Z,20.27
2022-08-19T21:54:48.374Z,19.81
2022-08-19T21:57:15.901Z,20.23
2022-08-19T21:59:44.048Z,19.70
2022-08-19T22:02:21.660Z,20.08
2022-08-19T22:05:08.410Z,19.81
2022-08-19T22:07:37.097Z,19.76
2022-08-19T22:10:10.120Z,19.74
2022-08-19T22:12:51.700Z,19.78
2022-08-19T22:16:00.618Z,19.86
2022-08-19T22:18:37.143Z,19.70
2022-08-19T22:21:11.940Z,19.75
2022-08-19T22:24:10.340Z,19.75
2022-08-19T22:26:44.509Z,19.84
2022-08-19T22:29:17.725Z,19.76
2022-08-19T22:32:27.053Z,19.61
2022-08-19T22:34:58.477Z,19.74
2022-08-19T22:37:31.974Z,19.73
2022-08-19T22:40:01.377Z,19.65
2022-08-19T22:42:33.222Z,19.13
2022-08-19T22:45:01.149Z,19.59
2022-08-19T22:47:30.252Z,19.54
2022-08-19T22:50:01.824Z,19.51
2022-08-19T22:52:32.061Z,19.44
2022-08-19T22:55:06.513Z,19.47
2022-08-19T22:57:33.946Z,19.35
2022-08-19T23:00:01.465Z,19.38
2022-08-19T23:02:38.842Z,19.36
2022-08-19T23:05:22.114Z,19.33
2022-08-19T23:07:52.507Z,19.15
2022-08-19T23:10:26.531Z,19.22
2022-08-19T23:12:56.718Z,19.05
2022-08-19T23:15:29.344Z,19.12
2022-08-19T23:17:59.664Z,19.09
2022-08-19T23:20:34.532Z,18.77
2022-08-19T23:23:05.221Z,18.89
2022-08-19T23:25:48.271Z,18.90
2022-08-19T23:28:43.897Z,18.97
2022-08-19T23:31:30.538Z,18.45
2022-08-19T23:34:03.912Z,18.16
2022-08-19T23:36:31.639Z,17.91
2022-08-19T23:39:05.655Z,18.25
2022-08-19T23:41:32.888Z,18.78
2022-08-19T23:44:14.993Z,18.46
2022-08-19T23:46:55.333Z,18.66
2022-08-19T23:49:28.795Z,18.45
2022-08-19T23:52:05.293Z,18.47
2022-08-19T23:54:43.681Z,17.93
